Time;durP1;ratioP1;P1;durP2;ratioP2;P2;SDS_P1;SDS_P2;PMS_P1;PMS_P2;Temp;Humidity;BMP_temperature;BMP_pressure;BME280_temperature;BME280_humidity;BME280_pressure;Samples;Min_cycle;Max_cycle;Signal;HPM_P1;HPM_P2
2023/07/12 00:01:10;;;;;;;;;4.00;4.00;;;;;25.41;59.05;100400.56;4872499;29;45421;-84
2023/07/12 00:03:36;;;;;;;;;5.67;2.67;;;;;25.35;58.87;100388.19;4871964;29;47513;-84
2023/07/12 00:06:01;;;;;;;;;3.67;3.67;;;;;25.33;59.12;100395.53;4890844;29;45404;-83
2023/07/12 00:08:28;;;;;;;;;6.00;2.00;;;;;25.34;59.65;100410.91;4888917;29;44755;-83
2023/07/12 00:10:56;;;;;;;;;2.33;2.33;;;;;25.28;58.73;100405.78;4871347;29;45546;-84
2023/07/12 00:13:23;;;;;;;;;3.00;3.00;;;;;25.18;59.28;100405.34;4869497;29;47290;-83
2023/07/12 00:15:50;;;;;;;;;3.00;3.00;;;;;25.21;59.43;100404.28;4887605;29;45553;-84
2023/07/12 00:18:26;;;;;;;;;3.00;3.00;;;;;25.35;59.40;100413.56;4888374;29;44757;-84
2023/07/12 00:20:52;;;;;;;;;3.00;3.00;;;;;25.32;59.34;100408.25;4873282;29;45387;-84
2023/07/12 00:23:19;;;;;;;;;3.67;3.67;;;;;25.29;59.31;100410.28;4873793;29;45300;-84
2023/07/12 00:25:46;;;;;;;;;2.67;2.67;;;;;25.33;59.55;100409.16;4889927;29;45428;-84
2023/07/12 00:28:24;;;;;;;;;3.33;3.33;;;;;25.37;59.72;100409.84;4891469;29;45476;-84
2023/07/12 00:30:51;;;;;;;;;2.67;2.67;;;;;25.28;59.92;100406.66;4875662;29;44868;-83
2023/07/12 00:33:17;;;;;;;;;4.00;4.00;;;;;25.11;59.81;100376.72;4893628;28;46747;-83
2023/07/12 00:35:43;;;;;;;;;5.33;3.67;;;;;25.23;59.83;100392.41;4874373;29;45579;-84
2023/07/12 00:38:16;;;;;;;;;6.00;4.67;;;;;25.27;59.78;100390.41;4874891;29;45059;-84
2023/07/12 00:40:48;;;;;;;;;3.33;3.33;;;;;25.28;60.05;100419.41;4876689;29;45415;-84
2023/07/12 00:43:35;;;;;;;;;3.67;2.67;;;;;25.35;60.37;100416.28;4891609;29;46216;-84
2023/07/12 00:46:05;;;;;;;;;2.67;2.67;;;;;25.31;60.67;100408.34;4892460;28;44833;-84
2023/07/12 00:48:30;;;;;;;;;3.00;3.00;;;;;25.23;60.85;100422.38;4890819;29;45500;-83
2023/07/12 00:50:56;;;;;;;;;6.00;6.00;;;;;25.26;60.94;100429.47;4890347;28;45558;-83
2023/07/12 00:53:23;;;;;;;;;5.00;5.00;;;;;25.30;61.05;100433.81;4876142;29;47586;-84
2023/07/12 00:56:10;;;;;;;;;5.00;5.00;;;;;25.38;61.59;100433.41;4876882;29;44867;-83
2023/07/12 00:58:41;;;;;;;;;4.33;4.33;;;;;25.34;61.47;100433.56;4877860;29;45439;-84
2023/07/12 01:01:11;;;;;;;;;3.67;2.67;;;;;25.31;61.64;100430.13;4877423;29;44902;-83
2023/07/12 01:03:40;;;;;;;;;4.00;4.00;;;;;25.25;61.73;100433.16;4876556;29;45443;-83
2023/07/12 01:06:08;;;;;;;;;3.00;1.67;;;;;25.21;61.00;100432.44;4876605;29;45489;-83
2023/07/12 01:08:34;;;;;;;;;2.33;2.33;;;;;25.14;60.86;100442.72;4889935;28;45318;-84
2023/07/12 01:11:02;;;;;;;;;2.00;2.00;;;;;25.16;60.29;100432.63;4875418;29;45326;-83
2023/07/12 01:13:30;;;;;;;;;1.33;1.33;;;;;25.03;60.12;100446.97;4879751;29;45610;-84
2023/07/12 01:16:00;;;;;;;;;1.00;1.00;;;;;24.77;60.19;100446.44;4876626;29;45582;-83
2023/07/12 01:18:29;;;;;;;;;1.00;1.00;;;;;24.69;60.35;100462.25;4876965;29;45382;-84
2023/07/12 01:24:18;;;;;;;;;1.00;1.00;;;;;24.34;60.26;100449.38;4876789;29;45286;-84
2023/07/12 01:26:49;;;;;;;;;2.00;1.67;;;;;24.38;60.46;100444.69;4878174;29;45478;-84
2023/07/12 01:29:16;;;;;;;;;1.00;1.00;;;;;24.39;60.71;100454.59;4877481;29;45378;-85
2023/07/12 01:31:44;;;;;;;;;1.33;1.33;;;;;24.36;61.27;100455.63;4892616;28;45547;-83
2023/07/12 01:34:10;;;;;;;;;1.00;0.67;;;;;24.19;61.47;100446.50;4889671;29;46955;-84
2023/07/12 01:36:36;;;;;;;;;0.67;0.67;;;;;24.07;61.58;100461.53;4873216;29;45489;-83
2023/07/12 01:39:04;;;;;;;;;1.00;0.67;;;;;23.98;61.46;100461.97;4878224;29;45490;-84
2023/07/12 01:41:30;;;;;;;;;1.33;1.33;;;;;23.83;62.99;100456.28;4890889;28;44869;-83
2023/07/12 01:43:57;;;;;;;;;1.00;1.00;;;;;23.76;62.50;100461.06;4888447;28;47925;-84
2023/07/12 01:46:56;;;;;;;;;1.00;1.00;;;;;23.76;63.28;100454.78;4873887;29;45431;-84
2023/07/12 01:49:21;;;;;;;;;1.50;1.00;;;;;23.53;63.84;100463.94;4874156;29;45375;-84
2023/07/12 01:51:49;;;;;;;;;1.00;1.00;;;;;23.46;63.31;100457.03;4889685;28;44921;-84
2023/07/12 01:54:15;;;;;;;;;1.00;1.00;;;;;23.41;63.69;100464.47;4875580;29;45575;-86
2023/07/12 01:56:40;;;;;;;;;0.75;0.75;;;;;23.35;64.09;100466.50;4874697;29;45369;-84
2023/07/12 01:59:05;;;;;;;;;1.00;0.00;;;;;23.29;64.25;100474.91;4871873;29;44926;-85
2023/07/12 02:01:31;;;;;;;;;0.00;0.00;;;;;23.17;65.78;100461.88;4873858;29;45494;-85
2023/07/12 02:03:56;;;;;;;;;0.00;0.00;;;;;23.16;65.64;100476.38;4873786;29;45268;-85
2023/07/12 02:06:21;;;;;;;;;1.00;1.00;;;;;23.01;65.75;100488.72;4874702;29;45343;-85
2023/07/12 02:08:49;;;;;;;;;2.00;2.00;;;;;22.97;65.32;100477.13;4872755;29;45300;-85
2023/07/12 02:11:15;;;;;;;;;1.00;1.00;;;;;23.05;65.45;100490.41;4873639;29;45415;-85
2023/07/12 02:13:40;;;;;;;;;3.00;0.00;;;;;22.97;65.60;100477.13;4872800;29;46808;-85
2023/07/12 02:16:06;;;;;;;;;1.00;1.00;;;;;23.06;65.21;100486.72;4874063;29;44845;-85
2023/07/12 02:18:31;;;;;;;;;1.50;0.00;;;;;23.07;66.43;100501.19;4890357;29;44823;-85
2023/07/12 02:20:57;;;;;;;;;0.00;0.00;;;;;22.94;66.80;100485.38;4876482;29;45773;-84
2023/07/12 02:23:22;;;;;;;;;1.67;0.67;;;;;22.87;67.42;100486.59;4873887;29;47085;-83
2023/07/12 02:25:48;;;;;;;;;1.00;1.00;;;;;22.85;66.22;100488.47;4889933;28;44802;-84
2023/07/12 02:28:13;;;;;;;;;1.00;1.00;;;;;22.88;66.48;100485.63;4890402;29;45508;-83
2023/07/12 02:30:41;;;;;;;;;1.00;1.00;;;;;22.95;66.16;100494.41;4877044;29;45545;-83
2023/07/12 02:33:07;;;;;;;;;1.33;1.33;;;;;22.96;66.33;100502.47;4877856;29;46198;-83
2023/07/12 02:35:35;;;;;;;;;2.00;1.00;;;;;22.93;67.45;100496.31;4873919;29;45369;-83
2023/07/12 02:38:01;;;;;;;;;2.00;2.00;;;;;22.85;66.38;100503.88;4873115;29;45514;-84
2023/07/12 02:40:27;;;;;;;;;0.75;0.75;;;;;22.82;67.28;100494.00;4875855;29;44865;-84
2023/07/12 02:42:54;;;;;;;;;1.00;1.00;;;;;22.75;67.61;100498.81;4874847;29;45422;-84
2023/07/12 02:45:19;;;;;;;;;2.33;1.00;;;;;22.67;68.54;100494.66;4876779;29;45414;-83
2023/07/12 02:47:45;;;;;;;;;0.50;0.50;;;;;22.66;68.61;100507.34;4890895;29;45446;-85
2023/07/12 02:50:10;;;;;;;;;1.00;1.00;;;;;22.62;68.04;100502.94;4874485;29;45358;-84
2023/07/12 02:52:35;;;;;;;;;2.00;0.50;;;;;22.57;68.03;100500.44;4873528;29;45179;-84
2023/07/12 02:55:01;;;;;;;;;1.00;1.00;;;;;22.55;68.14;100512.28;4870632;29;44775;-84
2023/07/12 02:57:27;;;;;;;;;1.00;1.00;;;;;22.54;67.45;100514.13;4873836;29;44827;-84
2023/07/12 02:59:52;;;;;;;;;1.00;1.00;;;;;22.50;68.53;100519.69;4876783;29;45475;-84
2023/07/12 03:02:18;;;;;;;;;1.00;1.00;;;;;22.43;67.73;100520.88;4874108;29;45388;-84
2023/07/12 03:04:44;;;;;;;;;1.00;1.00;;;;;22.31;67.91;100519.53;4857476;29;45391;-83
2023/07/12 03:07:12;;;;;;;;;1.67;1.00;;;;;22.28;66.67;100516.94;4873479;29;45384;-83
2023/07/12 03:09:38;;;;;;;;;1.00;1.00;;;;;22.15;66.67;100524.59;4875804;29;45517;-83
2023/07/12 03:12:04;;;;;;;;;1.00;1.00;;;;;22.11;65.69;100522.97;4875552;29;48211;-84
2023/07/12 03:14:29;;;;;;;;;1.00;1.00;;;;;22.09;66.05;100512.16;4874586;29;45526;-83
2023/07/12 03:16:56;;;;;;;;;1.33;1.33;;;;;22.16;65.88;100521.84;4872541;29;45463;-84
2023/07/12 03:19:22;;;;;;;;;1.00;1.00;;;;;22.14;65.92;100518.31;4872461;29;44885;-83
2023/07/12 03:21:55;;;;;;;;;2.00;2.00;;;;;22.08;66.20;100518.53;4856384;29;46880;-83
2023/07/12 03:24:20;;;;;;;;;1.00;1.00;;;;;22.05;66.25;100539.44;4873239;29;45331;-83
2023/07/12 03:26:46;;;;;;;;;1.75;1.75;;;;;22.04;65.87;100529.56;4859664;29;44760;-83
2023/07/12 03:29:17;;;;;;;;;2.00;2.00;;;;;22.07;65.62;100537.56;4872770;29;45415;-82
2023/07/12 03:31:42;;;;;;;;;2.00;2.00;;;;;21.93;65.93;100540.75;4871490;29;45495;-83
2023/07/12 03:34:08;;;;;;;;;2.33;2.00;;;;;21.91;65.64;100545.34;4870831;29;45460;-84
2023/07/12 03:36:33;;;;;;;;;2.33;2.00;;;;;21.86;66.49;100536.53;4870610;29;45437;-84
2023/07/12 03:39:00;;;;;;;;;2.00;2.00;;;;;21.90;65.64;100536.34;4856822;29;45419;-83
2023/07/12 03:41:26;;;;;;;;;4.00;3.00;;;;;21.87;66.08;100535.56;4872907;29;45468;-84
2023/07/12 03:43:52;;;;;;;;;2.75;1.25;;;;;21.80;65.60;100542.16;4873028;29;45332;-84
2023/07/12 03:46:17;;;;;;;;;4.00;2.67;;;;;21.77;65.57;100541.31;4872350;29;45442;-84
2023/07/12 03:48:43;;;;;;;;;1.00;1.00;;;;;21.75;65.16;100548.63;4874610;29;44794;-84
2023/07/12 03:51:11;;;;;;;;;0.67;0.67;;;;;21.81;65.22;100549.31;4874430;29;46203;-84
2023/07/12 03:53:37;;;;;;;;;2.00;2.00;;;;;21.77;65.31;100544.03;4858781;29;45471;-83
2023/07/12 03:56:03;;;;;;;;;2.33;1.00;;;;;21.82;66.01;100551.09;4873979;29;45392;-83
2023/07/12 03:58:34;;;;;;;;;2.33;2.33;;;;;21.91;65.48;100538.09;4859249;29;45823;-83
2023/07/12 04:01:06;;;;;;;;;2.00;2.00;;;;;22.06;64.67;100552.06;4862990;29;46917;-84
2023/07/12 04:03:32;;;;;;;;;1.33;1.33;;;;;21.97;64.56;100561.38;4863092;29;45355;-84
2023/07/12 04:05:58;;;;;;;;;2.33;1.67;;;;;21.89;64.76;100558.94;4862278;29;45492;-84
2023/07/12 04:08:23;;;;;;;;;2.00;2.00;;;;;21.84;64.26;100549.22;4878602;29;45426;-84
2023/07/12 04:10:53;;;;;;;;;3.67;1.67;;;;;21.96;63.89;100556.91;4860233;29;47096;-84
2023/07/12 04:13:18;;;;;;;;;3.00;2.00;;;;;21.74;64.32;100556.78;4862884;29;45531;-84
2023/07/12 04:15:44;;;;;;;;;5.00;3.33;;;;;21.64;65.07;100556.22;4879091;29;45381;-84
2023/07/12 04:18:09;;;;;;;;;2.00;2.00;;;;;21.47;65.40;100555.91;4878044;29;45531;-83
2023/07/12 04:20:39;;;;;;;;;2.00;2.00;;;;;21.62;65.51;100570.75;4864560;29;46603;-84
2023/07/12 04:23:05;;;;;;;;;2.00;2.00;;;;;21.58;65.43;100581.66;4877686;29;45427;-84
2023/07/12 04:25:32;;;;;;;;;4.00;2.00;;;;;21.60;64.95;100575.34;4878411;29;44935;-84
2023/07/12 04:27:58;;;;;;;;;1.33;1.33;;;;;21.49;64.61;100564.84;4862671;29;45550;-85
2023/07/12 04:30:24;;;;;;;;;3.00;3.00;;;;;21.47;65.01;100580.25;4875834;29;45788;-85
2023/07/12 04:32:52;;;;;;;;;2.33;2.33;;;;;21.43;64.95;100589.41;4877916;29;45455;-85
2023/07/12 04:35:19;;;;;;;;;2.67;2.67;;;;;21.41;65.16;100586.75;4859814;29;44819;-84
2023/07/12 04:37:48;;;;;;;;;4.00;3.00;;;;;21.42;65.29;100593.91;4859409;29;44839;-84
2023/07/12 04:40:14;;;;;;;;;3.00;3.00;;;;;21.32;64.99;100582.50;4877137;29;45328;-84
2023/07/12 04:42:40;;;;;;;;;2.00;2.00;;;;;21.34;65.30;100591.44;4875683;29;45490;-84
2023/07/12 04:45:09;;;;;;;;;1.00;1.00;;;;;21.42;65.40;100587.63;4861029;29;45468;-84
2023/07/12 04:47:36;;;;;;;;;3.00;2.00;;;;;21.41;66.13;100605.69;4877689;29;44756;-84
2023/07/12 04:50:03;;;;;;;;;1.33;1.33;;;;;21.42;65.98;100599.31;4877345;29;45834;-84
2023/07/12 04:52:28;;;;;;;;;3.00;2.67;;;;;21.32;65.63;100590.63;4875035;28;45540;-83
2023/07/12 04:55:00;;;;;;;;;3.00;3.00;;;;;21.45;65.99;100603.78;4876902;28;44921;-82
2023/07/12 04:57:25;;;;;;;;;2.33;2.00;;;;;21.31;65.77;100594.28;4861977;29;44820;-82
2023/07/12 04:59:51;;;;;;;;;3.00;3.00;;;;;21.33;65.44;100605.94;4861511;29;47050;-84
2023/07/12 05:02:16;;;;;;;;;3.00;3.00;;;;;21.45;65.17;100609.19;4860230;28;45536;-84
2023/07/12 05:04:43;;;;;;;;;1.33;1.33;;;;;21.52;64.39;100617.06;4876610;28;44817;-83
2023/07/12 05:07:09;;;;;;;;;1.33;1.33;;;;;21.54;63.60;100625.13;4875409;29;45559;-84
2023/07/12 05:09:35;;;;;;;;;1.00;1.00;;;;;21.41;63.17;100626.41;4875795;28;45930;-83
2023/07/12 05:12:01;;;;;;;;;1.67;1.67;;;;;21.36;63.20;100622.03;4858511;29;45244;-83
2023/07/12 05:14:28;;;;;;;;;2.00;2.00;;;;;21.37;63.04;100629.25;4872959;29;44809;-83
2023/07/12 05:16:56;;;;;;;;;2.00;2.00;;;;;21.36;63.18;100613.94;4872863;28;45470;-83
2023/07/12 05:19:21;;;;;;;;;3.00;2.00;;;;;21.34;62.93;100621.22;4874229;29;45425;-84
2023/07/12 05:21:47;;;;;;;;;2.67;2.33;;;;;21.39;63.29;100612.97;4873934;28;45890;-84
2023/07/12 05:24:13;;;;;;;;;2.33;1.67;;;;;21.63;62.36;100632.03;4858962;29;45373;-84
2023/07/12 05:26:39;;;;;;;;;2.00;2.00;;;;;21.67;62.47;100639.13;4876789;29;45498;-84
2023/07/12 05:29:07;;;;;;;;;3.00;3.00;;;;;21.73;61.92;100630.78;4876966;28;45447;-83
2023/07/12 05:31:36;;;;;;;;;2.00;2.00;;;;;21.82;62.02;100632.31;4874081;29;45300;-85
2023/07/12 05:34:01;;;;;;;;;2.00;2.00;;;;;21.86;62.35;100632.16;4876194;28;45468;-84
2023/07/12 05:36:26;;;;;;;;;2.33;2.33;;;;;22.03;61.15;100633.38;4877005;28;45502;-84
2023/07/12 05:38:54;;;;;;;;;2.00;2.00;;;;;22.05;60.95;100635.09;4877072;28;45525;-84
2023/07/12 05:41:19;;;;;;;;;3.00;3.00;;;;;21.90;60.91;100631.13;4875978;28;45460;-84
2023/07/12 05:43:45;;;;;;;;;2.00;2.00;;;;;21.90;61.09;100649.19;4861354;29;45444;-84
2023/07/12 05:46:13;;;;;;;;;1.25;1.25;;;;;21.99;61.15;100648.84;4878547;28;44785;-84
2023/07/12 05:48:40;;;;;;;;;3.00;3.00;;;;;22.03;60.80;100649.63;4862298;29;47575;-83
2023/07/12 05:51:07;;;;;;;;;2.00;2.00;;;;;22.05;60.70;100655.88;4879346;29;45415;-84
2023/07/12 05:53:33;;;;;;;;;2.00;2.00;;;;;22.15;59.96;100663.63;4861464;29;45433;-84
2023/07/12 05:56:00;;;;;;;;;2.00;2.00;;;;;22.09;60.08;100671.09;4879090;29;45352;-84
2023/07/12 05:58:25;;;;;;;;;2.00;2.00;;;;;21.94;60.49;100675.22;4861631;29;46717;-84
2023/07/12 06:04:16;;;;;;;;;1.00;1.00;;;;;21.85;60.15;100645.75;4859647;29;45519;-88
2023/07/12 06:06:50;;;;;;;;;4.67;3.67;;;;;22.01;60.67;100676.75;4861779;29;45234;-88
2023/07/12 06:09:17;;;;;;;;;3.00;3.00;;;;;21.99;60.57;100673.22;4856957;29;45588;-88
2023/07/12 06:11:47;;;;;;;;;3.00;3.00;;;;;21.92;60.03;100655.44;4854605;29;45425;-88
2023/07/12 06:14:13;;;;;;;;;3.00;3.00;;;;;21.96;59.53;100639.03;4856869;29;45547;-87
2023/07/12 06:16:45;;;;;;;;;2.00;2.00;;;;;22.08;58.98;100616.03;4854899;29;45423;-88
2023/07/12 06:19:22;;;;;;;;;3.00;3.00;;;;;22.38;58.81;100640.31;4908688;23;45626;-88
2023/07/12 06:21:47;;;;;;;;;2.00;2.00;;;;;22.45;57.83;100663.50;4842176;29;44889;-88
2023/07/12 06:24:18;;;;;;;;;2.00;2.00;;;;;22.30;58.18;100642.38;4858002;29;45454;-88
2023/07/12 06:26:47;;;;;;;;;3.33;3.33;;;;;22.50;56.57;100677.78;4858630;29;45634;-88
2023/07/12 06:29:32;;;;;;;;;;;;;;;;;;;;;
2023/07/12 06:32:00;;;;;;;;;1.33;1.33;;;;;22.33;57.31;100654.00;4873292;29;71292;-88
2023/07/12 06:34:26;;;;;;;;;2.33;2.00;;;;;22.49;56.87;100659.75;4858052;29;45318;-88
2023/07/12 06:37:10;;;;;;;;;3.00;3.00;;;;;22.85;56.97;100670.16;4878699;29;45306;-87
2023/07/12 06:40:28;;;;;;;;;4.00;4.00;;;;;23.17;56.48;100689.78;4871388;29;46367;-87
2023/07/12 06:43:15;;;;;;;;;3.33;3.33;;;;;23.22;56.50;100698.59;4840333;29;44792;-87
2023/07/12 06:46:15;;;;;;;;;6.00;4.00;;;;;23.36;55.84;100698.94;4875093;29;45413;-87
2023/07/12 06:48:41;;;;;;;;;3.00;3.00;;;;;23.05;55.29;100663.13;4858712;29;44817;-85
2023/07/12 06:51:11;;;;;;;;;3.00;3.00;;;;;23.23;55.17;100675.06;4858414;29;45327;-88
2023/07/12 06:54:25;;;;;;;;;2.00;2.00;;;;;23.38;54.49;100668.16;4859196;29;44822;-88
2023/07/12 10:14:44;;;;;;;;;1.33;1.33;;;;;27.18;39.88;100776.41;4881623;23;45252;-86
2023/07/12 10:21:43;;;;;;;;;;;;;;;;;;;;;
2023/07/12 10:24:14;;;;;;;;;0.33;0.33;;;;;26.82;38.57;100762.91;4885444;28;72355;-87
2023/07/12 10:30:37;;;;;;;;;1.00;1.00;;;;;27.40;38.23;100756.16;4884624;29;45390;-85
2023/07/12 10:33:35;;;;;;;;;0.33;0.33;;;;;27.49;38.23;100715.56;4877770;29;45606;-85
2023/07/12 10:36:48;;;;;;;;;1.67;1.67;;;;;27.77;38.12;100748.59;4874716;29;45436;-85
2023/07/12 10:39:35;;;;;;;;;0.67;0.67;;;;;27.81;37.15;100748.31;4856652;29;45212;-84
2023/07/12 10:42:44;;;;;;;;;1.33;1.33;;;;;27.01;38.00;100702.78;4848989;29;45528;-84
2023/07/12 10:46:18;;;;;;;;;;;;;;;;;;;;;
2023/07/12 10:49:48;;;;;;;;;;;;;;;;;;;;;
2023/07/12 10:52:49;;;;;;;;;;;;;;;;;;;;;
2023/07/12 11:40:06;;;;;;;;;1.00;0.00;;;;;27.10;37.06;100713.16;5087933;23;46309;-85
2023/07/12 11:42:35;;;;;;;;;1.33;0.00;;;;;27.28;36.84;100724.94;4874310;29;45535;-85
2023/07/12 11:48:29;;;;;;;;;;;;;;;;;;;;;
2023/07/12 11:51:08;;;;;;;;;2.00;2.00;;;;;27.72;35.73;100716.06;4860681;28;69342;-85
2023/07/12 11:54:10;;;;;;;;;0.00;0.00;;;;;27.31;35.13;100689.28;4876088;29;44856;-85
2023/07/12 11:56:52;;;;;;;;;0.67;0.33;;;;;27.42;35.97;100732.38;4854056;29;45438;-86
2023/07/12 11:59:50;;;;;;;;;2.33;2.00;;;;;27.29;36.35;100691.22;4863714;29;45515;-86
2023/07/12 12:02:54;;;;;;;;;1.33;1.33;;;;;27.77;35.99;100745.84;4887667;28;45391;-87
2023/07/12 12:13:13;;;;;;;;;0.33;0.33;;;;;27.55;35.43;100703.38;4787318;29;44783;-85
2023/07/12 12:16:10;;;;;;;;;;;;;;;;;;;;;
2023/07/12 12:22:08;;;;;;;;;2.67;2.67;;;;;27.71;33.72;100731.59;5074301;23;45786;-86
2023/07/12 12:57:26;;;;;;;;;3.00;1.33;;;;;28.58;32.95;100699.16;5395703;23;47255;-85
2023/07/12 13:01:45;;;;;;;;;0.33;0.33;;;;;29.11;32.81;100719.59;4813435;29;45812;-84
2023/07/12 13:03:51;;;;;;;;;1.33;1.33;;;;;29.28;31.85;100715.75;4802253;29;45004;-85
2023/07/12 13:06:36;;;;;;;;;0.33;0.33;;;;;29.17;31.41;100716.44;4798604;29;45608;-84
2023/07/12 13:09:46;;;;;;;;;1.67;1.67;;;;;28.98;32.37;100689.31;4780030;29;47272;-85
2023/07/12 13:12:48;;;;;;;;;;;;;;;;;;;;;
2023/07/12 13:34:52;;;;;;;;;0.33;0.33;;;;;28.86;32.47;100681.88;4781840;23;44939;-85
2023/07/12 13:38:45;;;;;;;;;;;;;;;;;;;;;
2023/07/12 13:49:10;;;;;;;;;;;;;;;;;;;;;
2023/07/12 17:23:50;;;;;;;;;1.00;1.00;;;;;35.30;20.74;100664.59;4882879;29;45887;-84
2023/07/12 17:26:20;;;;;;;;;2.33;2.33;;;;;33.95;22.00;100637.84;4850834;29;45297;-83
2023/07/12 17:28:50;;;;;;;;;1.00;1.00;;;;;32.87;23.50;100677.09;4850901;29;45588;-83
2023/07/12 17:31:41;;;;;;;;;1.00;1.00;;;;;31.76;24.46;100627.06;4834243;29;45728;-83
2023/07/12 17:34:28;;;;;;;;;0.00;0.00;;;;;31.02;24.41;100635.28;4836545;29;45355;-82
2023/07/12 17:40:00;;;;;;;;;1.33;1.33;;;;;30.19;26.17;100661.25;4813843;29;45636;-83
2023/07/12 17:42:31;;;;;;;;;0.00;0.00;;;;;29.67;27.58;100632.78;4814399;29;45412;-84
2023/07/12 17:45:04;;;;;;;;;3.00;2.00;;;;;29.69;26.85;100644.53;4815156;29;45480;-84
2023/07/12 17:54:15;;;;;;;;;1.00;1.00;;;;;29.40;27.84;100643.72;4815215;29;45811;-83
2023/07/12 17:56:43;;;;;;;;;1.00;1.00;;;;;29.06;28.08;100621.25;4812515;29;46002;-84
2023/07/12 17:59:42;;;;;;;;;2.00;2.00;;;;;29.19;28.17;100658.81;4798762;29;45519;-83
2023/07/12 18:02:46;;;;;;;;;1.00;1.00;;;;;29.11;28.72;100624.59;4823549;29;45717;-83
2023/07/12 18:05:24;;;;;;;;;3.33;2.00;;;;;29.06;28.90;100623.09;4850904;29;45455;-84
2023/07/12 18:07:53;;;;;;;;;0.00;0.00;;;;;29.08;28.68;100632.09;4835371;29;44912;-85
2023/07/12 18:11:00;;;;;;;;;;;;;;;;;;;;;
2023/07/12 18:13:47;;;;;;;;;0.33;0.33;;;;;29.57;28.04;100669.09;4851655;29;75750;-83
2023/07/12 18:16:25;;;;;;;;;2.00;2.00;;;;;29.31;28.52;100637.00;4859356;29;44811;-84
2023/07/12 18:18:51;;;;;;;;;2.33;2.33;;;;;29.39;28.53;100660.25;4892487;29;45362;-84
2023/07/12 18:24:38;;;;;;;;;2.00;1.00;;;;;28.99;28.59;100640.94;4869892;29;45420;-83
2023/07/12 18:27:47;;;;;;;;;0.00;0.00;;;;;28.62;28.78;100635.06;4870671;29;45484;-84
2023/07/12 18:30:16;;;;;;;;;1.00;1.00;;;;;28.36;28.55;100639.38;4827055;29;45555;-83
2023/07/12 18:36:29;;;;;;;;;0.33;0.33;;;;;28.18;30.19;100663.28;4867838;29;45503;-83
2023/07/12 18:39:04;;;;;;;;;0.67;0.67;;;;;27.85;30.66;100658.84;4869689;29;45431;-82
2023/07/12 18:41:31;;;;;;;;;1.00;1.00;;;;;27.84;30.40;100665.28;4866497;29;45514;-84
2023/07/12 18:43:59;;;;;;;;;1.00;1.00;;;;;27.78;31.24;100673.84;4852623;29;45821;-83
2023/07/12 18:46:25;;;;;;;;;1.33;1.33;;;;;27.71;32.14;100693.34;4866579;29;48373;-83
2023/07/12 18:48:51;;;;;;;;;1.67;1.67;;;;;27.49;32.06;100703.72;4867379;29;45428;-83
2023/07/12 18:51:23;;;;;;;;;2.33;2.33;;;;;27.45;32.15;100702.13;4869038;29;45347;-83
2023/07/12 18:53:49;;;;;;;;;2.00;0.67;;;;;27.20;33.69;100711.69;4869363;29;45478;-84
2023/07/12 18:56:18;;;;;;;;;1.00;1.00;;;;;27.03;34.51;100711.75;4862419;29;48036;-84
2023/07/12 18:58:44;;;;;;;;;1.67;0.67;;;;;26.83;34.38;100699.22;4852434;29;45477;-83
2023/07/12 19:01:13;;;;;;;;;3.00;1.00;;;;;26.88;35.37;100719.78;4866568;29;45567;-83
2023/07/12 19:03:39;;;;;;;;;2.00;2.00;;;;;26.71;35.61;100714.38;4899063;29;46406;-83
2023/07/12 19:06:06;;;;;;;;;2.00;2.00;;;;;26.74;35.26;100719.66;4879761;29;47430;-83
2023/07/12 19:08:32;;;;;;;;;4.33;2.67;;;;;26.67;36.23;100715.50;4879359;29;45454;-83
2023/07/12 19:10:58;;;;;;;;;1.67;1.67;;;;;26.59;37.23;100736.88;4874450;29;44901;-83
2023/07/12 19:14:31;;;;;;;;;;;;;;;;;;;;;
2023/07/12 19:16:59;;;;;;;;;1.00;1.00;;;;;26.31;37.05;100713.72;4884706;29;75214;-83
2023/07/12 19:19:34;;;;;;;;;1.33;1.33;;;;;26.30;37.07;100706.53;4879724;29;44777;-83
2023/07/12 19:22:28;;;;;;;;;3.00;3.00;;;;;26.37;37.55;100743.41;4861115;29;45883;-84
2023/07/12 19:28:28;;;;;;;;;2.00;2.00;;;;;25.85;38.61;100707.88;4867145;29;45772;-85
2023/07/12 19:31:33;;;;;;;;;1.00;1.00;;;;;25.91;38.76;100751.19;4864770;29;45374;-85
2023/07/12 19:34:00;;;;;;;;;6.33;2.33;;;;;25.62;39.41;100753.47;4851416;29;45386;-86
2023/07/12 19:36:28;;;;;;;;;3.67;2.67;;;;;25.32;39.47;100718.59;4864213;29;44864;-86
2023/07/12 19:38:59;;;;;;;;;1.33;1.33;;;;;25.42;39.91;100759.00;4857932;29;46360;-86
2023/07/12 19:44:50;;;;;;;;;1.33;1.33;;;;;25.30;40.89;100768.63;4868252;29;45469;-84
2023/07/12 19:47:18;;;;;;;;;3.00;3.00;;;;;25.18;40.04;100775.47;4866853;29;44725;-85
2023/07/12 19:49:43;;;;;;;;;4.00;2.33;;;;;25.14;40.08;100785.63;4858817;29;45459;-85
2023/07/12 19:52:17;;;;;;;;;1.00;1.00;;;;;25.08;40.76;100776.88;4855643;29;44941;-85
2023/07/12 19:54:44;;;;;;;;;2.00;2.00;;;;;24.99;40.61;100793.63;4858467;29;45425;-84
2023/07/12 19:57:17;;;;;;;;;1.33;1.33;;;;;24.99;41.47;100796.34;4841521;29;45568;-84
2023/07/12 19:59:43;;;;;;;;;2.00;2.00;;;;;24.62;40.63;100762.59;4854623;29;45208;-83
2023/07/12 20:02:30;;;;;;;;;4.00;3.00;;;;;24.79;41.76;100802.69;4853967;29;44852;-84
2023/07/12 20:08:20;;;;;;;;;3.33;2.00;;;;;24.52;42.87;100806.53;4856382;29;44781;-85
2023/07/12 20:10:49;;;;;;;;;4.00;2.00;;;;;24.29;42.04;100774.84;4839260;29;45447;-85
2023/07/12 20:13:15;;;;;;;;;2.00;1.00;;;;;24.45;43.64;100823.13;4854263;29;45432;-85
2023/07/12 20:15:41;;;;;;;;;2.00;2.00;;;;;24.35;43.00;100834.38;4855349;29;45673;-84
2023/07/12 20:18:11;;;;;;;;;2.67;2.00;;;;;24.13;43.58;100796.34;4855019;29;45393;-85
2023/07/12 20:20:37;;;;;;;;;3.00;1.67;;;;;24.13;42.93;100820.78;4837738;29;47084;-85
2023/07/12 20:23:03;;;;;;;;;1.33;1.33;;;;;24.16;43.17;100834.25;4870011;29;45529;-85
2023/07/12 20:25:28;;;;;;;;;4.00;4.00;;;;;23.99;43.20;100811.44;4870877;29;45490;-84
2023/07/12 20:27:54;;;;;;;;;2.00;2.00;;;;;24.12;43.50;100837.19;4870797;29;45588;-85
2023/07/12 20:30:19;;;;;;;;;2.67;2.00;;;;;24.09;43.83;100840.00;4871754;29;45500;-85
2023/07/12 20:32:44;;;;;;;;;3.33;3.33;;;;;24.02;43.06;100839.38;4869587;29;44846;-85
2023/07/12 20:35:13;;;;;;;;;0.33;0.33;;;;;24.09;43.81;100843.59;4871828;29;45528;-85
2023/07/12 20:37:40;;;;;;;;;2.33;1.67;;;;;24.07;44.28;100845.50;4872598;29;44847;-85
2023/07/12 20:40:07;;;;;;;;;2.33;2.33;;;;;24.02;43.17;100847.53;4871505;29;47636;-85
2023/07/12 20:42:36;;;;;;;;;3.00;2.00;;;;;23.97;43.42;100838.66;4872706;29;45345;-85
2023/07/12 20:45:03;;;;;;;;;1.33;1.33;;;;;23.91;44.23;100860.63;4874812;29;45538;-85
2023/07/12 20:47:29;;;;;;;;;1.67;1.67;;;;;23.89;43.95;100851.66;4875970;29;44949;-85
2023/07/12 20:49:54;;;;;;;;;1.67;1.67;;;;;23.86;44.31;100851.81;4876735;29;45554;-84
2023/07/12 20:52:23;;;;;;;;;2.33;2.00;;;;;23.82;44.05;100855.59;4878579;29;45455;-85
2023/07/12 20:54:48;;;;;;;;;4.00;3.00;;;;;23.79;43.86;100852.97;4876123;29;45550;-84
2023/07/12 20:57:13;;;;;;;;;3.67;2.67;;;;;23.80;43.75;100865.63;4877001;29;45445;-85
2023/07/12 20:59:39;;;;;;;;;3.00;3.00;;;;;23.80;43.65;100863.78;4876960;29;45398;-85
2023/07/12 21:02:05;;;;;;;;;3.33;2.67;;;;;23.84;44.31;100862.72;4877424;29;45427;-85
2023/07/12 21:04:31;;;;;;;;;3.67;3.33;;;;;23.81;44.73;100864.66;4877537;29;45379;-84
2023/07/12 21:06:56;;;;;;;;;2.67;2.67;;;;;23.74;44.60;100873.03;4877108;29;45327;-84
2023/07/12 21:09:28;;;;;;;;;2.67;2.67;;;;;23.80;44.33;100873.78;4876238;29;46979;-85
2023/07/12 21:11:53;;;;;;;;;4.67;4.00;;;;;23.62;44.77;100865.34;4874728;29;44842;-84
2023/07/12 21:14:22;;;;;;;;;3.67;2.67;;;;;23.61;44.86;100873.53;4873500;29;45446;-85
2023/07/12 21:16:50;;;;;;;;;3.00;3.00;;;;;23.61;44.71;100869.00;4875832;29;45383;-85
2023/07/12 21:19:15;;;;;;;;;3.00;3.00;;;;;23.40;44.48;100846.28;4872809;29;47267;-85
2023/07/12 21:21:40;;;;;;;;;4.33;2.33;;;;;23.50;44.64;100874.84;4873789;29;44893;-85
2023/07/12 21:24:06;;;;;;;;;3.00;2.00;;;;;23.54;45.68;100883.75;4875986;29;45903;-85
2023/07/12 21:26:32;;;;;;;;;2.33;2.00;;;;;23.42;44.83;100878.78;4875064;29;45634;-85
2023/07/12 21:28:57;;;;;;;;;3.33;3.00;;;;;23.32;44.79;100868.25;4875222;29;45471;-85
2023/07/12 21:31:24;;;;;;;;;2.00;2.00;;;;;23.45;45.36;100893.16;4875443;29;45518;-85
2023/07/12 21:33:59;;;;;;;;;3.33;3.00;;;;;23.46;45.49;100881.31;4873398;29;45353;-85
2023/07/12 21:36:28;;;;;;;;;2.67;2.00;;;;;23.26;46.04;100876.63;4875213;29;45443;-85